createdAt,value
2019-01-30T00:00:55.063Z,17.48
2019-01-30T00:03:29.135Z,17.70
2019-01-30T00:06:13.453Z,16.90
2019-01-30T00:08:56.520Z,15.93
2019-01-30T00:11:28.659Z,17.17
2019-01-30T00:14:09.494Z,17.60
2019-01-30T00:16:41.590Z,17.77
2019-01-30T00:19:14.066Z,16.55
2019-01-30T00:21:46.128Z,14.87
2019-01-30T00:24:18.128Z,15.20
2019-01-30T00:26:50.261Z,16.10
2019-01-30T00:29:23.278Z,15.43
2019-01-30T00:31:55.280Z,14.93
2019-01-30T00:34:27.244Z,15.17
2019-01-30T00:36:59.387Z,16.00
2019-01-30T00:39:31.348Z,15.08
2019-01-30T00:42:03.379Z,15.70
2019-01-30T00:44:38.129Z,16.05
2019-01-30T00:47:15.775Z,15.83
2019-01-30T00:49:47.029Z,15.03
2019-01-30T00:52:19.086Z,20.80
2019-01-30T00:54:51.389Z,18.50
2019-01-30T00:57:23.421Z,16.37
2019-01-30T00:59:55.453Z,15.93
2019-01-30T01:02:27.654Z,16.97
2019-01-30T01:04:59.755Z,17.23
2019-01-30T01:07:31.754Z,17.67
2019-01-30T01:10:06.164Z,16.83
2019-01-30T01:12:38.278Z,15.85
2019-01-30T01:15:12.583Z,17.20
2019-01-30T01:17:44.873Z,16.32
2019-01-30T01:20:17.138Z,17.48
2019-01-30T01:22:49.537Z,16.73
2019-01-30T01:25:21.537Z,18.37
2019-01-30T01:27:53.539Z,16.15
2019-01-30T01:30:27.336Z,16.43
2019-01-30T01:32:59.400Z,16.65
2019-01-30T01:35:33.687Z,16.50
2019-01-30T01:38:05.870Z,15.50
2019-01-30T01:40:37.923Z,15.50
2019-01-30T01:43:10.072Z,15.70
2019-01-30T01:45:42.092Z,17.60
2019-01-30T01:48:14.516Z,16.95
2019-01-30T01:50:47.048Z,17.52
2019-01-30T01:53:19.229Z,17.27
2019-01-30T01:55:51.319Z,18.00
2019-01-30T01:58:23.918Z,17.85
2019-01-30T02:00:56.028Z,18.20
2019-01-30T02:03:36.749Z,17.30
2019-01-30T02:06:09.439Z,18.37
2019-01-30T02:08:41.441Z,20.35
2019-01-30T02:11:14.039Z,20.17
2019-01-30T02:13:46.145Z,19.02
2019-01-30T02:16:18.717Z,18.82
2019-01-30T02:18:51.190Z,19.17
2019-01-30T02:21:24.389Z,20.47
2019-01-30T02:23:56.342Z,18.80
2019-01-30T02:26:28.426Z,18.27
2019-01-30T02:29:00.650Z,17.62
2019-01-30T02:31:32.702Z,17.90
2019-01-30T02:34:06.302Z,18.17
2019-01-30T02:36:56.474Z,14.93
2019-01-30T02:39:30.253Z,16.95
2019-01-30T02:42:02.347Z,15.43
2019-01-30T02:44:34.347Z,16.17
2019-01-30T02:47:08.367Z,16.65
2019-01-30T02:49:40.389Z,17.07
2019-01-30T02:52:12.486Z,17.40
2019-01-30T02:54:44.479Z,18.97
2019-01-30T02:57:16.442Z,17.00
2019-01-30T02:59:48.457Z,16.73
2019-01-30T03:02:23.706Z,16.70
2019-01-30T03:04:55.711Z,17.23
2019-01-30T03:07:28.190Z,17.95
2019-01-30T03:10:00.514Z,18.20
2019-01-30T03:12:32.472Z,18.07
2019-01-30T03:15:04.817Z,17.33
2019-01-30T03:17:36.884Z,17.23
2019-01-30T03:20:13.826Z,16.77
2019-01-30T03:22:45.786Z,16.43
2019-01-30T03:25:18.606Z,18.80
2019-01-30T03:27:50.780Z,18.40
2019-01-30T03:30:25.445Z,17.90
2019-01-30T03:32:57.520Z,16.67
2019-01-30T03:35:30.239Z,16.17
2019-01-30T03:38:05.412Z,15.98
2019-01-30T03:40:37.791Z,16.13
2019-01-30T03:43:10.301Z,16.45
2019-01-30T03:45:43.881Z,17.37
2019-01-30T03:48:17.049Z,17.80
2019-01-30T03:50:49.147Z,16.87
2019-01-30T03:53:21.147Z,16.12
2019-01-30T03:55:55.673Z,17.40
2019-01-30T03:58:27.758Z,16.87
2019-01-30T04:00:59.738Z,18.00
2019-01-30T04:03:31.744Z,16.97
2019-01-30T04:06:03.901Z,17.30
2019-01-30T04:08:35.904Z,17.27
2019-01-30T04:11:07.885Z,16.47
2019-01-30T04:13:41.537Z,16.47
2019-01-30T04:16:13.803Z,17.15
2019-01-30T04:18:45.804Z,18.80
2019-01-30T04:21:17.837Z,17.97
2019-01-30T04:23:49.842Z,17.77
2019-01-30T04:26:23.861Z,19.70
2019-01-30T04:28:55.937Z,17.05
2019-01-30T04:31:37.918Z,17.65
2019-01-30T04:34:02.512Z,18.43
2019-01-30T04:36:34.544Z,15.80
2019-01-30T04:39:09.036Z,16.77
2019-01-30T04:41:41.140Z,16.43
2019-01-30T04:44:14.976Z,16.43
2019-01-30T04:46:46.925Z,17.23
2019-01-30T04:49:19.040Z,16.87
2019-01-30T04:51:51.064Z,17.93
2019-01-30T04:54:23.061Z,18.03
2019-01-30T04:56:56.516Z,18.87
2019-01-30T04:59:28.502Z,16.90
2019-01-30T05:02:00.598Z,16.33
2019-01-30T05:04:32.594Z,16.70
2019-01-30T05:07:04.793Z,15.07
2019-01-30T05:09:36.795Z,15.50
2019-01-30T05:12:08.934Z,17.80
2019-01-30T05:14:40.978Z,15.37
2019-01-30T05:17:13.027Z,15.73
2019-01-30T05:19:45.022Z,14.67
2019-01-30T05:22:16.954Z,13.70
2019-01-30T05:24:48.984Z,13.10
2019-01-30T05:27:21.062Z,13.43
2019-01-30T05:29:53.040Z,14.37
2019-01-30T05:32:25.014Z,14.00
2019-01-30T05:34:56.998Z,14.33
2019-01-30T05:37:29.134Z,14.27
2019-01-30T05:40:01.160Z,13.97
2019-01-30T05:42:33.345Z,14.27
2019-01-30T05:45:06.159Z,13.50
2019-01-30T05:47:38.428Z,12.90
2019-01-30T05:50:10.732Z,11.83
2019-01-30T05:52:42.925Z,11.13
2019-01-30T05:55:15.645Z,12.20
2019-01-30T05:57:47.705Z,12.33
2019-01-30T06:00:27.980Z,12.90
2019-01-30T06:03:00.017Z,12.93
2019-01-30T06:05:32.217Z,13.60
2019-01-30T06:08:04.762Z,13.20
2019-01-30T06:10:36.961Z,13.63
2019-01-30T06:13:09.035Z,12.70
2019-01-30T06:15:41.205Z,12.60
2019-01-30T06:18:13.212Z,13.10
2019-01-30T06:20:45.254Z,12.50
2019-01-30T06:23:17.493Z,10.87
2019-01-30T06:25:49.458Z,11.17
2019-01-30T06:28:21.465Z,10.23
2019-01-30T06:30:53.553Z,10.97
2019-01-30T06:33:25.508Z,9.97
2019-01-30T06:36:00.079Z,10.63
2019-01-30T06:38:32.192Z,10.27
2019-01-30T06:41:04.368Z,11.90
2019-01-30T06:43:36.303Z,11.30
2019-01-30T06:46:08.305Z,10.93
2019-01-30T06:48:40.361Z,10.83
2019-01-30T06:51:12.494Z,11.43
2019-01-30T06:53:44.444Z,11.57
2019-01-30T06:56:17.506Z,10.80
2019-01-30T06:58:49.859Z,11.13
2019-01-30T07:01:21.850Z,11.00
2019-01-30T07:03:54.389Z,10.88
2019-01-30T07:06:26.578Z,10.77
2019-01-30T07:09:00.704Z,11.70
2019-01-30T07:11:32.754Z,11.63
2019-01-30T07:14:04.910Z,11.87
2019-01-30T07:16:37.010Z,10.60
2019-01-30T07:19:09.072Z,11.70
2019-01-30T07:21:41.334Z,11.40
2019-01-30T07:24:13.349Z,11.10
2019-01-30T07:26:45.355Z,11.50
2019-01-30T07:29:17.684Z,11.23
2019-01-30T07:31:49.770Z,10.90
2019-01-30T07:34:21.881Z,10.70
2019-01-30T07:36:55.675Z,10.60
2019-01-30T07:39:29.493Z,12.07
2019-01-30T07:42:01.513Z,10.20
2019-01-30T07:44:33.487Z,11.63
2019-01-30T07:47:05.565Z,10.97
2019-01-30T07:49:37.659Z,11.27
2019-01-30T07:52:09.795Z,11.40
2019-01-30T07:54:41.741Z,9.97
2019-01-30T07:57:13.748Z,10.37
2019-01-30T07:59:48.119Z,10.57
2019-01-30T08:02:21.893Z,11.23
2019-01-30T08:04:54.111Z,11.00
2019-01-30T08:07:27.683Z,11.50
2019-01-30T08:09:59.815Z,11.87
2019-01-30T08:12:32.538Z,11.43
2019-01-30T08:15:05.051Z,12.07
2019-01-30T08:17:40.045Z,12.60
2019-01-30T08:20:14.735Z,12.80
2019-01-30T08:22:47.020Z,11.10
2019-01-30T08:25:21.136Z,11.87
2019-01-30T08:27:55.577Z,12.07
2019-01-30T08:30:44.057Z,12.15
2019-01-30T08:33:27.265Z,11.53
2019-01-30T08:35:59.951Z,11.43
2019-01-30T08:38:32.077Z,11.15
2019-01-30T08:41:04.160Z,11.38
2019-01-30T08:43:38.303Z,11.40
2019-01-30T08:46:10.424Z,10.82
2019-01-30T08:48:42.456Z,10.82
2019-01-30T08:51:14.608Z,11.28
2019-01-30T08:53:46.589Z,12.90
2019-01-30T08:56:18.669Z,11.73
2019-01-30T08:58:50.698Z,12.03
2019-01-30T09:01:22.755Z,12.80
2019-01-30T09:03:54.775Z,12.00
2019-01-30T09:06:26.774Z,11.10
2019-01-30T09:09:00.125Z,12.00
2019-01-30T09:11:32.303Z,11.15
2019-01-30T09:14:04.350Z,12.78
2019-01-30T09:16:36.367Z,12.90
2019-01-30T09:19:08.295Z,12.90
2019-01-30T09:21:40.326Z,13.32
2019-01-30T09:24:13.074Z,13.50
2019-01-30T09:26:45.054Z,12.00
2019-01-30T09:29:17.077Z,13.68
2019-01-30T09:31:49.120Z,11.48
2019-01-30T09:34:21.661Z,12.25
2019-01-30T09:36:53.757Z,11.97
2019-01-30T09:39:25.805Z,12.78
2019-01-30T09:41:58.196Z,12.55
2019-01-30T09:44:30.213Z,11.78
2019-01-30T09:47:02.323Z,13.15
2019-01-30T09:49:34.381Z,15.30
2019-01-30T09:52:06.506Z,17.52
2019-01-30T09:54:38.894Z,18.10
2019-01-30T09:57:10.928Z,18.98
2019-01-30T09:59:43.011Z,16.30
2019-01-30T10:02:15.067Z,13.18
2019-01-30T10:04:47.101Z,11.93
2019-01-30T10:07:19.220Z,12.45
2019-01-30T10:09:53.994Z,13.85
2019-01-30T10:12:26.010Z,19.98
2019-01-30T10:15:01.499Z,16.97
2019-01-30T10:17:33.485Z,16.27
2019-01-30T10:20:06.339Z,15.25
2019-01-30T10:22:40.180Z,14.75
2019-01-30T10:25:12.550Z,16.32
2019-01-30T10:27:44.496Z,22.90
2019-01-30T10:30:19.657Z,30.37
2019-01-30T10:32:51.719Z,18.82
2019-01-30T10:35:24.126Z,16.50
2019-01-30T10:37:56.276Z,14.03
2019-01-30T10:40:28.540Z,12.20
2019-01-30T10:43:00.696Z,12.47
2019-01-30T10:45:32.783Z,12.60
2019-01-30T10:48:04.909Z,11.75
2019-01-30T10:50:37.149Z,26.57
2019-01-30T10:53:09.379Z,19.75
2019-01-30T10:55:41.538Z,12.93
2019-01-30T10:58:16.482Z,11.95
2019-01-30T11:00:50.788Z,12.05
2019-01-30T11:03:24.659Z,10.85
2019-01-30T11:05:56.767Z,11.80
2019-01-30T11:08:28.720Z,12.10
2019-01-30T11:11:07.516Z,20.62
2019-01-30T11:13:34.505Z,20.23
2019-01-30T11:16:06.750Z,11.03
2019-01-30T11:18:38.737Z,7.78
2019-01-30T11:21:10.797Z,7.22
2019-01-30T11:23:42.914Z,7.33
2019-01-30T11:26:14.956Z,6.92
2019-01-30T11:28:46.918Z,61.15
2019-01-30T11:31:19.013Z,40.35
2019-01-30T11:33:51.050Z,11.68
2019-01-30T11:36:23.030Z,43.17
2019-01-30T11:38:55.236Z,7.20
2019-01-30T11:41:27.329Z,5.87
2019-01-30T11:43:59.384Z,5.45
2019-01-30T11:46:31.392Z,14.43
2019-01-30T11:49:03.516Z,9.08
2019-01-30T11:51:35.604Z,5.05
2019-01-30T11:54:07.665Z,5.75
2019-01-30T11:56:39.992Z,39.45
2019-01-30T11:59:12.000Z,23.77
2019-01-30T12:01:43.964Z,5.40
2019-01-30T12:04:18.088Z,4.72
2019-01-30T12:06:49.838Z,4.97
2019-01-30T12:09:21.929Z,23.05
2019-01-30T12:11:53.928Z,18.05
2019-01-30T12:14:25.926Z,10.28
2019-01-30T12:16:57.869Z,4.80
2019-01-30T12:19:29.860Z,3.92
2019-01-30T12:22:01.952Z,4.45
2019-01-30T12:24:33.933Z,4.25
2019-01-30T12:27:06.099Z,5.87
2019-01-30T12:29:38.206Z,4.05
2019-01-30T12:32:12.458Z,3.65
2019-01-30T12:34:44.578Z,4.42
2019-01-30T12:37:16.589Z,3.77
2019-01-30T12:39:48.656Z,6.67
2019-01-30T12:42:20.892Z,3.30
2019-01-30T12:44:54.584Z,4.25
2019-01-30T12:47:26.563Z,4.40
2019-01-30T12:49:58.746Z,3.87
2019-01-30T12:52:30.907Z,3.90
2019-01-30T12:55:02.937Z,17.82
2019-01-30T12:57:35.067Z,9.60
2019-01-30T13:00:15.302Z,5.60
2019-01-30T13:02:47.416Z,4.37
2019-01-30T13:05:20.716Z,3.80
2019-01-30T13:07:52.717Z,4.00
2019-01-30T13:10:24.656Z,3.35
2019-01-30T13:12:56.696Z,4.05
2019-01-30T13:15:29.099Z,3.58
2019-01-30T13:18:01.262Z,4.85
2019-01-30T13:20:33.380Z,18.57
2019-01-30T13:23:05.937Z,3.58
2019-01-30T13:25:41.482Z,2.70
2019-01-30T13:28:13.525Z,2.83
2019-01-30T13:30:45.548Z,2.08
2019-01-30T13:33:17.687Z,1.67
2019-01-30T13:35:50.119Z,2.45
2019-01-30T13:38:22.275Z,2.60
2019-01-30T13:40:54.286Z,5.95
2019-01-30T13:43:26.274Z,2.35
2019-01-30T13:46:05.502Z,1.57
2019-01-30T13:48:33.697Z,2.33
2019-01-30T13:51:05.907Z,2.42
2019-01-30T13:53:37.849Z,7.80
2019-01-30T13:56:11.197Z,7.45
2019-01-30T13:58:43.459Z,25.52
2019-01-30T14:01:17.635Z,3.42
2019-01-30T14:03:49.659Z,1.77
2019-01-30T14:06:21.694Z,2.52
2019-01-30T14:08:53.825Z,3.15
2019-01-30T14:11:27.490Z,9.20
2019-01-30T14:13:59.623Z,34.43
2019-01-30T14:16:31.687Z,4.10
2019-01-30T14:19:03.687Z,2.70
2019-01-30T14:21:35.801Z,1.72
2019-01-30T14:24:08.883Z,1.70
2019-01-30T14:26:40.928Z,4.90
2019-01-30T14:29:14.067Z,6.97
2019-01-30T14:31:46.042Z,22.32
2019-01-30T14:34:20.419Z,10.70
2019-01-30T14:36:55.335Z,6.25
2019-01-30T14:39:27.357Z,1.57
2019-01-30T14:41:59.986Z,1.60
2019-01-30T14:44:31.926Z,1.90
2019-01-30T14:47:04.255Z,7.55
2019-01-30T14:49:36.221Z,4.70
2019-01-30T14:52:08.226Z,5.53
2019-01-30T14:54:40.255Z,15.75
2019-01-30T14:57:12.433Z,3.08
2019-01-30T14:59:44.351Z,2.00
2019-01-30T15:02:16.398Z,2.30
2019-01-30T15:04:48.817Z,3.67
2019-01-30T15:07:28.839Z,19.48
2019-01-30T15:09:55.662Z,29.50
2019-01-30T15:12:27.740Z,33.50
2019-01-30T15:15:01.028Z,24.55
2019-01-30T15:17:33.121Z,6.03
2019-01-30T15:20:07.704Z,2.50
2019-01-30T15:22:39.693Z,31.42
2019-01-30T15:25:12.884Z,13.18
2019-01-30T15:27:45.099Z,16.12
2019-01-30T15:30:30.760Z,60.03
2019-01-30T15:33:02.830Z,26.65
2019-01-30T15:35:34.820Z,5.75
2019-01-30T15:38:08.947Z,3.00
2019-01-30T15:40:41.534Z,3.10
2019-01-30T15:43:13.623Z,4.17
2019-01-30T15:45:45.589Z,25.82
2019-01-30T15:48:18.089Z,20.37
2019-01-30T15:50:52.523Z,9.58
2019-01-30T15:53:25.891Z,3.45
2019-01-30T15:55:59.203Z,2.77
2019-01-30T15:58:31.219Z,3.08
2019-01-30T16:01:24.012Z,8.93
2019-01-30T16:03:56.131Z,47.20
2019-01-30T16:06:28.224Z,18.00
2019-01-30T16:09:00.244Z,16.25
2019-01-30T16:11:33.862Z,11.88
2019-01-30T16:14:06.062Z,3.02
2019-01-30T16:16:38.113Z,17.02
2019-01-30T16:19:10.117Z,3.85
2019-01-30T16:21:42.104Z,4.25
2019-01-30T16:24:15.897Z,8.18
2019-01-30T16:26:47.892Z,39.20
2019-01-30T16:29:20.089Z,6.53
2019-01-30T16:31:52.197Z,2.52
2019-01-30T16:34:25.422Z,1.37
2019-01-30T16:36:57.416Z,1.27
2019-01-30T16:39:29.403Z,1.00
2019-01-30T16:42:01.378Z,4.17
2019-01-30T16:44:33.485Z,1.40
2019-01-30T16:47:05.582Z,2.62
2019-01-30T16:49:37.523Z,0.93
2019-01-30T16:52:09.516Z,1.80
2019-01-30T16:54:41.541Z,11.08
2019-01-30T16:57:13.525Z,3.42
2019-01-30T16:59:47.073Z,5.37
2019-01-30T17:02:19.175Z,2.22
2019-01-30T17:04:51.385Z,3.42
2019-01-30T17:07:23.398Z,1.30
2019-01-30T17:09:55.407Z,1.87
2019-01-30T17:12:27.377Z,15.03
2019-01-30T17:14:59.543Z,17.50
2019-01-30T17:17:31.631Z,47.30
2019-01-30T17:20:04.525Z,31.15
2019-01-30T17:22:36.529Z,1.92
2019-01-30T17:25:09.158Z,2.12
2019-01-30T17:27:42.812Z,14.40
2019-01-30T17:30:18.720Z,16.48
2019-01-30T17:32:50.729Z,4.47
2019-01-30T17:35:23.002Z,3.60
2019-01-30T17:37:55.114Z,31.30
2019-01-30T17:40:27.891Z,80.12
2019-01-30T17:43:01.531Z,19.32
2019-01-30T17:45:33.573Z,25.25
2019-01-30T17:48:06.832Z,4.30
2019-01-30T17:50:39.049Z,1.25
2019-01-30T17:53:11.007Z,1.45
2019-01-30T17:55:43.149Z,0.80
2019-01-30T17:58:15.284Z,1.00
2019-01-30T18:00:54.845Z,0.90
2019-01-30T18:03:27.803Z,1.00
2019-01-30T18:06:03.173Z,1.05
2019-01-30T18:08:35.254Z,1.20
2019-01-30T18:11:07.390Z,0.98
2019-01-30T18:13:39.374Z,1.22
2019-01-30T18:16:11.554Z,1.27
2019-01-30T18:18:43.654Z,1.20
2019-01-30T18:21:15.649Z,1.17
2019-01-30T18:23:47.632Z,1.90
2019-01-30T18:26:19.698Z,1.67
2019-01-30T18:28:51.924Z,1.40
2019-01-30T18:31:24.045Z,1.40
2019-01-30T18:33:55.974Z,1.80
2019-01-30T18:36:28.030Z,1.40
2019-01-30T18:39:00.063Z,1.62
2019-01-30T18:41:33.677Z,1.80
2019-01-30T18:44:07.454Z,2.02
2019-01-30T18:46:39.423Z,1.50
2019-01-30T18:49:11.623Z,1.32
2019-01-30T18:51:45.121Z,1.52
2019-01-30T18:54:17.083Z,1.77
2019-01-30T18:56:49.218Z,1.42
2019-01-30T18:59:21.217Z,1.00
2019-01-30T19:01:53.951Z,1.17
2019-01-30T19:04:25.891Z,1.00
2019-01-30T19:06:57.923Z,1.27
2019-01-30T19:09:29.930Z,0.88
2019-01-30T19:12:01.907Z,1.42
2019-01-30T19:14:33.929Z,1.05
2019-01-30T19:17:06.973Z,1.85
2019-01-30T19:19:39.508Z,1.80
2019-01-30T19:22:11.503Z,2.00
2019-01-30T19:24:43.995Z,1.70
2019-01-30T19:27:16.089Z,1.60
2019-01-30T19:29:48.084Z,1.30
2019-01-30T19:32:22.643Z,1.90
2019-01-30T19:34:54.628Z,1.50
2019-01-30T19:37:26.591Z,1.77
2019-01-30T19:40:01.990Z,1.50
2019-01-30T19:42:34.398Z,1.52
2019-01-30T19:45:08.758Z,1.70
2019-01-30T19:47:40.835Z,2.08
2019-01-30T19:50:18.291Z,1.30
2019-01-30T19:52:50.497Z,1.40
2019-01-30T19:55:22.784Z,1.45
2019-01-30T19:57:55.144Z,1.30
2019-01-30T20:00:36.341Z,1.60
2019-01-30T20:03:13.482Z,1.62
2019-01-30T20:05:45.811Z,1.65
2019-01-30T20:08:19.209Z,1.32
2019-01-30T20:10:51.319Z,1.57
2019-01-30T20:13:23.420Z,1.37
2019-01-30T20:15:55.419Z,1.35
2019-01-30T20:18:27.455Z,1.05
2019-01-30T20:21:19.667Z,1.20
2019-01-30T20:24:00.948Z,1.75
2019-01-30T20:26:41.446Z,1.60
2019-01-30T20:29:17.180Z,1.82
2019-01-30T20:31:53.277Z,1.30
2019-01-30T20:34:30.793Z,1.50
2019-01-30T20:37:07.903Z,1.50
2019-01-30T20:39:46.252Z,1.67
2019-01-30T20:42:36.734Z,1.20
2019-01-30T20:45:33.479Z,1.72
2019-01-30T20:48:51.663Z,2.05
2019-01-30T20:51:49.916Z,1.70
2019-01-30T20:54:40.585Z,1.65
2019-01-30T20:57:29.636Z,1.05
2019-01-30T21:00:16.781Z,1.07
2019-01-30T21:03:03.920Z,1.07
2019-01-30T21:05:53.681Z,1.00
2019-01-30T21:08:38.967Z,0.70
2019-01-30T21:11:30.542Z,1.05
2019-01-30T21:14:22.992Z,1.17
2019-01-30T21:17:06.703Z,1.42
2019-01-30T21:19:45.873Z,1.30
2019-01-30T21:22:51.732Z,1.00
2019-01-30T21:25:33.513Z,1.10
2019-01-30T21:28:11.637Z,1.55
2019-01-30T21:30:53.329Z,1.72
2019-01-30T21:34:30.286Z,1.70
2019-01-30T21:37:10.827Z,1.87
2019-01-30T21:40:02.998Z,1.77
2019-01-30T21:42:42.565Z,2.22
2019-01-30T21:45:28.230Z,1.95
2019-01-30T21:48:12.645Z,2.40
2019-01-30T21:50:52.977Z,1.95
2019-01-30T21:53:54.271Z,1.98
2019-01-30T21:56:44.434Z,2.80
2019-01-30T21:59:38.411Z,2.37
2019-01-30T22:02:19.210Z,2.40
2019-01-30T22:04:57.996Z,2.25
2019-01-30T22:07:33.050Z,1.82
2019-01-30T22:10:18.450Z,2.00
2019-01-30T22:12:51.468Z,1.90
2019-01-30T22:15:24.632Z,1.37
2019-01-30T22:17:58.126Z,1.57
2019-01-30T22:20:30.483Z,1.00
2019-01-30T22:23:03.494Z,1.00
2019-01-30T22:25:35.657Z,1.35
2019-01-30T22:28:07.980Z,1.40
2019-01-30T22:30:40.013Z,1.20
2019-01-30T22:33:12.105Z,1.07
2019-01-30T22:35:44.241Z,1.00
2019-01-30T22:38:16.216Z,0.68
2019-01-30T22:40:48.359Z,1.15
2019-01-30T22:43:20.357Z,1.10
2019-01-30T22:45:52.385Z,1.15
2019-01-30T22:48:25.302Z,1.00
2019-01-30T22:50:57.293Z,1.32
2019-01-30T22:53:31.741Z,2.10
2019-01-30T22:56:04.469Z,2.08
2019-01-30T22:58:36.512Z,2.00
2019-01-30T23:01:37.428Z,1.87
2019-01-30T23:04:41.794Z,2.12
2019-01-30T23:07:54.287Z,1.92
2019-01-30T23:10:58.028Z,1.75
2019-01-30T23:14:02.355Z,1.95
2019-01-30T23:17:03.385Z,2.08
2019-01-30T23:20:22.668Z,2.20
2019-01-30T23:23:25.682Z,2.52
2019-01-30T23:26:20.436Z,2.90
2019-01-30T23:29:45.205Z,2.40
2019-01-30T23:32:30.953Z,1.65
2019-01-30T23:35:32.300Z,1.90
2019-01-30T23:38:50.151Z,1.40
2019-01-30T23:41:58.652Z,2.47
2019-01-30T23:44:56.577Z,3.98
2019-01-30T23:47:49.980Z,3.17
2019-01-30T23:50:51.304Z,3.45
2019-01-30T23:53:54.862Z,3.75
2019-01-30T23:57:04.589Z,4.05
